sensor_id;sensor_type;location;lat;lon;timestamp;pressure;altitude;pressure_sealevel;temperature;humidity
84483;BME280;74703;51.284;22.590;2024-02-26T00:03:51;98723.22;;;8.38;86.78
84483;BME280;74703;51.284;22.590;2024-02-26T00:08:54;98722.28;;;8.40;86.73
84483;BME280;74703;51.284;22.590;2024-02-26T00:13:54;98718.84;;;8.40;87.24
84483;BME280;74703;51.284;22.590;2024-02-26T00:18:55;98724.94;;;8.39;87.36
84483;BME280;74703;51.284;22.590;2024-02-26T00:23:56;98731.28;;;8.51;87.35
84483;BME280;74703;51.284;22.590;2024-02-26T00:28:56;98707.75;;;8.36;87.33
84483;BME280;74703;51.284;22.590;2024-02-26T00:33:57;98712.56;;;8.44;87.27
84483;BME280;74703;51.284;22.590;2024-02-26T00:38:57;98718.38;;;8.49;87.06
84483;BME280;74703;51.284;22.590;2024-02-26T00:43:58;98718.22;;;8.52;87.45
84483;BME280;74703;51.284;22.590;2024-02-26T00:48:58;98710.84;;;8.44;87.44
84483;BME280;74703;51.284;22.590;2024-02-26T00:54:00;98695.59;;;8.38;88.00
84483;BME280;74703;51.284;22.590;2024-02-26T00:59:01;98708.41;;;8.41;88.40
84483;BME280;74703;51.284;22.590;2024-02-26T01:04:02;98709.16;;;8.43;88.55
84483;BME280;74703;51.284;22.590;2024-02-26T01:09:03;98700.47;;;8.44;89.03
84483;BME280;74703;51.284;22.590;2024-02-26T01:14:05;98682.84;;;8.34;89.17
84483;BME280;74703;51.284;22.590;2024-02-26T01:19:06;98696.56;;;8.36;89.52
84483;BME280;74703;51.284;22.590;2024-02-26T01:24:07;98680.88;;;8.21;89.85
84483;BME280;74703;51.284;22.590;2024-02-26T01:29:07;98693.81;;;8.21;90.16
84483;BME280;74703;51.284;22.590;2024-02-26T01:34:08;98696.41;;;8.21;90.13
84483;BME280;74703;51.284;22.590;2024-02-26T01:39:08;98693.88;;;8.20;90.42
84483;BME280;74703;51.284;22.590;2024-02-26T01:44:13;98696.63;;;8.17;90.61
84483;BME280;74703;51.284;22.590;2024-02-26T01:49:16;98699.63;;;8.09;90.67
84483;BME280;74703;51.284;22.590;2024-02-26T01:54:17;98709.97;;;8.09;90.94
84483;BME280;74703;51.284;22.590;2024-02-26T01:59:18;98715.06;;;8.11;91.01
84483;BME280;74703;51.284;22.590;2024-02-26T02:04:23;98709.34;;;8.04;90.67
84483;BME280;74703;51.284;22.590;2024-02-26T02:09:25;98713.09;;;7.98;90.93
84483;BME280;74703;51.284;22.590;2024-02-26T02:14:26;98709.66;;;7.98;91.24
84483;BME280;74703;51.284;22.590;2024-02-26T02:19:27;98689.09;;;7.95;91.67
84483;BME280;74703;51.284;22.590;2024-02-26T02:24:27;98694.56;;;7.89;91.90
84483;BME280;74703;51.284;22.590;2024-02-26T02:29:28;98695.53;;;7.86;92.44
84483;BME280;74703;51.284;22.590;2024-02-26T02:34:28;98710.88;;;7.91;92.96
84483;BME280;74703;51.284;22.590;2024-02-26T02:39:29;98718.56;;;7.92;93.48
84483;BME280;74703;51.284;22.590;2024-02-26T02:44:30;98689.94;;;7.78;93.99
84483;BME280;74703;51.284;22.590;2024-02-26T02:49:32;98709.28;;;7.88;94.16
84483;BME280;74703;51.284;22.590;2024-02-26T02:54:33;98700.44;;;7.75;94.60
84483;BME280;74703;51.284;22.590;2024-02-26T02:59:34;98705.53;;;7.76;95.00
84483;BME280;74703;51.284;22.590;2024-02-26T03:04:35;98723.19;;;7.86;95.22
84483;BME280;74703;51.284;22.590;2024-02-26T03:09:36;98685.53;;;7.61;95.56
84483;BME280;74703;51.284;22.590;2024-02-26T03:14:36;98713.44;;;7.73;95.67
84483;BME280;74703;51.284;22.590;2024-02-26T03:19:37;98718.41;;;7.78;95.84
84483;BME280;74703;51.284;22.590;2024-02-26T03:24:38;98728.81;;;7.76;95.71
84483;BME280;74703;51.284;22.590;2024-02-26T03:29:39;98712.50;;;7.57;95.83
84483;BME280;74703;51.284;22.590;2024-02-26T03:34:40;98731.50;;;7.75;95.79
84483;BME280;74703;51.284;22.590;2024-02-26T03:39:41;98729.22;;;7.69;96.11
84483;BME280;74703;51.284;22.590;2024-02-26T03:44:41;98745.28;;;7.75;96.22
84483;BME280;74703;51.284;22.590;2024-02-26T03:49:42;98713.88;;;7.64;96.35
84483;BME280;74703;51.284;22.590;2024-02-26T03:54:42;98700.16;;;7.62;96.53
84483;BME280;74703;51.284;22.590;2024-02-26T03:59:43;98720.91;;;7.79;96.56
84483;BME280;74703;51.284;22.590;2024-02-26T04:04:44;98711.69;;;7.74;96.79
84483;BME280;74703;51.284;22.590;2024-02-26T04:09:44;98712.91;;;7.67;97.07
84483;BME280;74703;51.284;22.590;2024-02-26T04:14:45;98730.63;;;7.74;97.21
84483;BME280;74703;51.284;22.590;2024-02-26T04:19:45;98732.69;;;7.68;97.03
84483;BME280;74703;51.284;22.590;2024-02-26T04:24:46;98737.72;;;7.71;97.75
84483;BME280;74703;51.284;22.590;2024-02-26T04:29:47;98751.44;;;7.73;97.45
84483;BME280;74703;51.284;22.590;2024-02-26T04:34:48;98738.09;;;7.63;97.15
84483;BME280;74703;51.284;22.590;2024-02-26T04:39:49;98724.81;;;7.52;96.85
84483;BME280;74703;51.284;22.590;2024-02-26T04:44:49;98719.00;;;7.47;96.85
84483;BME280;74703;51.284;22.590;2024-02-26T04:49:50;98736.84;;;7.53;97.03
84483;BME280;74703;51.284;22.590;2024-02-26T04:54:51;98716.09;;;7.36;96.77
84483;BME280;74703;51.284;22.590;2024-02-26T04:59:52;98718.59;;;7.37;96.81
84483;BME280;74703;51.284;22.590;2024-02-26T05:04:52;98711.47;;;7.23;96.82
84483;BME280;74703;51.284;22.590;2024-02-26T05:09:53;98729.50;;;7.25;96.92
84483;BME280;74703;51.284;22.590;2024-02-26T05:14:53;98737.00;;;7.31;97.14
84483;BME280;74703;51.284;22.590;2024-02-26T05:19:54;98733.16;;;7.21;96.68
84483;BME280;74703;51.284;22.590;2024-02-26T05:24:56;98751.28;;;7.21;96.63
84483;BME280;74703;51.284;22.590;2024-02-26T05:29:56;98746.94;;;7.21;96.62
84483;BME280;74703;51.284;22.590;2024-02-26T05:34:57;98741.81;;;7.20;96.38
84483;BME280;74703;51.284;22.590;2024-02-26T05:39:58;98759.09;;;7.19;96.39
84483;BME280;74703;51.284;22.590;2024-02-26T05:44:59;98759.22;;;7.16;96.28
84483;BME280;74703;51.284;22.590;2024-02-26T05:49:59;98737.03;;;7.10;96.43
84483;BME280;74703;51.284;22.590;2024-02-26T05:55:01;98759.44;;;7.30;96.43
84483;BME280;74703;51.284;22.590;2024-02-26T06:00:02;98769.38;;;7.40;96.66
84483;BME280;74703;51.284;22.590;2024-02-26T06:05:05;98754.63;;;7.42;97.00
84483;BME280;74703;51.284;22.590;2024-02-26T06:10:07;98747.41;;;7.48;97.36
84483;BME280;74703;51.284;22.590;2024-02-26T06:15:09;98763.34;;;7.58;97.62
84483;BME280;74703;51.284;22.590;2024-02-26T06:20:10;98760.34;;;7.67;97.35
84483;BME280;74703;51.284;22.590;2024-02-26T06:25:13;98776.66;;;7.69;97.57
84483;BME280;74703;51.284;22.590;2024-02-26T06:30:13;98764.59;;;7.68;97.79
84483;BME280;74703;51.284;22.590;2024-02-26T06:35:14;98751.88;;;7.64;97.64
84483;BME280;74703;51.284;22.590;2024-02-26T06:40:14;98767.97;;;7.70;97.30
84483;BME280;74703;51.284;22.590;2024-02-26T06:45:15;98784.28;;;7.72;97.33
84483;BME280;74703;51.284;22.590;2024-02-26T06:50:16;98782.31;;;7.58;97.58
84483;BME280;74703;51.284;22.590;2024-02-26T06:55:16;98793.03;;;7.70;98.03
84483;BME280;74703;51.284;22.590;2024-02-26T07:00:18;98790.28;;;7.73;98.35
84483;BME280;74703;51.284;22.590;2024-02-26T07:05:20;98792.25;;;7.87;98.09
84483;BME280;74703;51.284;22.590;2024-02-26T07:10:21;98792.34;;;8.02;97.54
84483;BME280;74703;51.284;22.590;2024-02-26T07:15:21;98787.47;;;7.96;96.77
84483;BME280;74703;51.284;22.590;2024-02-26T07:20:22;98784.03;;;7.96;96.50
84483;BME280;74703;51.284;22.590;2024-02-26T07:25:23;98801.59;;;8.08;96.56
84483;BME280;74703;51.284;22.590;2024-02-26T07:30:24;98793.19;;;8.03;96.26
84483;BME280;74703;51.284;22.590;2024-02-26T07:35:25;98799.88;;;8.07;96.27
84483;BME280;74703;51.284;22.590;2024-02-26T07:40:26;98811.94;;;8.25;96.40
84483;BME280;74703;51.284;22.590;2024-02-26T07:45:27;98787.16;;;8.39;96.03
84483;BME280;74703;51.284;22.590;2024-02-26T07:50:28;98799.38;;;8.71;94.90
84483;BME280;74703;51.284;22.590;2024-02-26T07:55:29;98802.38;;;8.97;93.50
84483;BME280;74703;51.284;22.590;2024-02-26T08:00:30;98796.25;;;8.98;93.05
84483;BME280;74703;51.284;22.590;2024-02-26T08:05:30;98798.22;;;9.10;93.21
84483;BME280;74703;51.284;22.590;2024-02-26T08:10:31;98802.88;;;9.37;92.84
84483;BME280;74703;51.284;22.590;2024-02-26T08:15:32;98801.28;;;9.34;91.08
84483;BME280;74703;51.284;22.590;2024-02-26T08:20:34;98797.56;;;9.23;91.20
84483;BME280;74703;51.284;22.590;2024-02-26T08:25:35;98813.09;;;9.24;91.91
84483;BME280;74703;51.284;22.590;2024-02-26T08:30:35;98806.13;;;9.25;91.69
84483;BME280;74703;51.284;22.590;2024-02-26T08:35:36;98810.06;;;9.32;90.94
84483;BME280;74703;51.284;22.590;2024-02-26T08:40:36;98817.97;;;9.46;90.09
84483;BME280;74703;51.284;22.590;2024-02-26T08:45:37;98813.22;;;9.54;89.20
84483;BME280;74703;51.284;22.590;2024-02-26T08:50:38;98817.75;;;9.82;88.73
84483;BME280;74703;51.284;22.590;2024-02-26T08:55:38;98796.78;;;10.01;88.83
84483;BME280;74703;51.284;22.590;2024-02-26T09:00:39;98798.53;;;10.32;88.35
84483;BME280;74703;51.284;22.590;2024-02-26T09:05:39;98807.97;;;10.94;85.15
84483;BME280;74703;51.284;22.590;2024-02-26T09:10:40;98792.63;;;11.04;83.07
84483;BME280;74703;51.284;22.590;2024-02-26T09:15:41;98799.03;;;10.98;82.75
84483;BME280;74703;51.284;22.590;2024-02-26T09:20:41;98790.13;;;11.31;82.64
84483;BME280;74703;51.284;22.590;2024-02-26T09:25:42;98796.16;;;11.31;81.28
84483;BME280;74703;51.284;22.590;2024-02-26T09:30:45;98808.97;;;10.91;82.73
84483;BME280;74703;51.284;22.590;2024-02-26T09:35:46;98804.78;;;10.74;82.34
84483;BME280;74703;51.284;22.590;2024-02-26T09:40:46;98793.16;;;10.66;82.16
84483;BME280;74703;51.284;22.590;2024-02-26T09:45:47;98785.72;;;10.60;83.12
84483;BME280;74703;51.284;22.590;2024-02-26T09:50:50;98800.81;;;10.97;83.43
84483;BME280;74703;51.284;22.590;2024-02-26T09:55:52;98791.81;;;11.03;82.12
84483;BME280;74703;51.284;22.590;2024-02-26T10:00:56;98799.16;;;11.11;81.87
84483;BME280;74703;51.284;22.590;2024-02-26T10:06:01;98799.91;;;11.27;81.27
84483;BME280;74703;51.284;22.590;2024-02-26T10:11:06;98797.94;;;11.45;79.91
84483;BME280;74703;51.284;22.590;2024-02-26T10:16:07;98823.78;;;11.62;78.69
84483;BME280;74703;51.284;22.590;2024-02-26T10:21:08;98819.59;;;11.74;78.53
84483;BME280;74703;51.284;22.590;2024-02-26T10:26:10;98814.38;;;11.60;77.74
84483;BME280;74703;51.284;22.590;2024-02-26T10:31:14;98819.97;;;11.68;77.37
84483;BME280;74703;51.284;22.590;2024-02-26T10:36:14;98785.16;;;11.69;77.14
84483;BME280;74703;51.284;22.590;2024-02-26T10:41:15;98803.91;;;12.03;75.50
84483;BME280;74703;51.284;22.590;2024-02-26T10:46:16;98796.34;;;12.25;75.46
84483;BME280;74703;51.284;22.590;2024-02-26T10:51:21;98799.28;;;12.73;73.18
84483;BME280;74703;51.284;22.590;2024-02-26T10:56:26;98805.75;;;13.19;72.14
84483;BME280;74703;51.284;22.590;2024-02-26T11:01:30;98777.25;;;13.03;72.35
84483;BME280;74703;51.284;22.590;2024-02-26T11:06:32;98811.09;;;12.79;74.55
84483;BME280;74703;51.284;22.590;2024-02-26T11:11:34;98791.56;;;12.59;74.91
84483;BME280;74703;51.284;22.590;2024-02-26T11:16:38;98809.63;;;12.75;75.29
84483;BME280;74703;51.284;22.590;2024-02-26T11:21:40;98796.81;;;13.36;73.61
84483;BME280;74703;51.284;22.590;2024-02-26T11:26:48;98784.25;;;13.15;74.09
84483;BME280;74703;51.284;22.590;2024-02-26T11:31:52;98799.09;;;13.27;74.92
84483;BME280;74703;51.284;22.590;2024-02-26T11:36:53;98792.31;;;13.38;74.28
84483;BME280;74703;51.284;22.590;2024-02-26T11:41:54;98780.59;;;13.31;74.12
84483;BME280;74703;51.284;22.590;2024-02-26T11:46:56;98785.28;;;13.13;74.42
84483;BME280;74703;51.284;22.590;2024-02-26T11:51:58;98786.44;;;13.21;73.44
84483;BME280;74703;51.284;22.590;2024-02-26T11:57:01;98797.44;;;13.39;72.99
84483;BME280;74703;51.284;22.590;2024-02-26T12:02:02;98796.78;;;13.48;71.92
84483;BME280;74703;51.284;22.590;2024-02-26T12:07:03;98788.84;;;13.37;73.64
84483;BME280;74703;51.284;22.590;2024-02-26T12:12:10;98801.19;;;13.48;70.51
84483;BME280;74703;51.284;22.590;2024-02-26T12:17:24;98786.44;;;13.34;69.88
84483;BME280;74703;51.284;22.590;2024-02-26T12:22:26;98783.13;;;13.19;68.72
84483;BME280;74703;51.284;22.590;2024-02-26T12:27:28;98801.06;;;13.24;69.11
84483;BME280;74703;51.284;22.590;2024-02-26T12:32:28;98791.78;;;13.33;67.65
84483;BME280;74703;51.284;22.590;2024-02-26T12:37:29;98797.56;;;13.38;67.75
84483;BME280;74703;51.284;22.590;2024-02-26T12:42:31;98792.31;;;13.38;68.61
84483;BME280;74703;51.284;22.590;2024-02-26T12:47:35;98792.25;;;13.63;67.02
84483;BME280;74703;51.284;22.590;2024-02-26T12:52:39;98790.66;;;13.73;66.21
84483;BME280;74703;51.284;22.590;2024-02-26T12:57:43;98814.47;;;13.82;66.89
84483;BME280;74703;51.284;22.590;2024-02-26T13:02:45;98819.78;;;13.93;65.71
84483;BME280;74703;51.284;22.590;2024-02-26T13:07:46;98802.47;;;14.03;64.40
84483;BME280;74703;51.284;22.590;2024-02-26T13:12:48;98784.00;;;14.17;64.96
84483;BME280;74703;51.284;22.590;2024-02-26T13:17:53;98799.34;;;14.46;64.71
84483;BME280;74703;51.284;22.590;2024-02-26T13:23:02;98801.13;;;14.46;62.94
84483;BME280;74703;51.284;22.590;2024-02-26T13:28:08;98803.59;;;14.12;63.39
84483;BME280;74703;51.284;22.590;2024-02-26T13:33:12;98825.03;;;14.17;63.46
84483;BME280;74703;51.284;22.590;2024-02-26T13:38:13;98810.44;;;14.02;63.77
84483;BME280;74703;51.284;22.590;2024-02-26T13:43:14;98818.75;;;14.19;63.14
84483;BME280;74703;51.284;22.590;2024-02-26T13:48:15;98807.22;;;14.22;62.92
84483;BME280;74703;51.284;22.590;2024-02-26T13:53:15;98823.41;;;14.03;64.12
84483;BME280;74703;51.284;22.590;2024-02-26T13:58:16;98810.06;;;13.95;64.73
84483;BME280;74703;51.284;22.590;2024-02-26T14:03:20;98821.53;;;14.05;64.42
84483;BME280;74703;51.284;22.590;2024-02-26T14:08:21;98830.94;;;14.08;64.43
84483;BME280;74703;51.284;22.590;2024-02-26T14:13:21;98835.81;;;14.12;64.39
84483;BME280;74703;51.284;22.590;2024-02-26T14:18:22;98825.84;;;13.93;64.75
84483;BME280;74703;51.284;22.590;2024-02-26T14:23:22;98829.41;;;13.92;65.65
84483;BME280;74703;51.284;22.590;2024-02-26T14:28:23;98840.81;;;13.91;66.25
84483;BME280;74703;51.284;22.590;2024-02-26T14:33:25;98837.06;;;13.83;65.93
84483;BME280;74703;51.284;22.590;2024-02-26T14:38:25;98820.28;;;13.61;66.66
84483;BME280;74703;51.284;22.590;2024-02-26T14:43:26;98849.44;;;13.81;64.83
84483;BME280;74703;51.284;22.590;2024-02-26T14:48:26;98828.34;;;13.58;66.31
84483;BME280;74703;51.284;22.590;2024-02-26T14:53:27;98830.56;;;13.39;65.84
84483;BME280;74703;51.284;22.590;2024-02-26T14:58:27;98835.03;;;13.24;66.55
84483;BME280;74703;51.284;22.590;2024-02-26T15:03:28;98849.03;;;13.10;68.39
84483;BME280;74703;51.284;22.590;2024-02-26T15:08:28;98828.94;;;12.85;69.41
84483;BME280;74703;51.284;22.590;2024-02-26T15:13:29;98841.34;;;12.69;70.88
84483;BME280;74703;51.284;22.590;2024-02-26T15:18:29;98842.44;;;12.52;71.97
84483;BME280;74703;51.284;22.590;2024-02-26T15:23:30;98858.47;;;12.33;74.52
84483;BME280;74703;51.284;22.590;2024-02-26T15:28:31;98846.25;;;12.06;77.90
84483;BME280;74703;51.284;22.590;2024-02-26T15:33:31;98836.97;;;11.88;79.66
84483;BME280;74703;51.284;22.590;2024-02-26T15:38:32;98847.88;;;11.80;80.91
84483;BME280;74703;51.284;22.590;2024-02-26T15:43:32;98864.53;;;11.78;82.09
84483;BME280;74703;51.284;22.590;2024-02-26T15:48:33;98859.50;;;11.60;83.50
84483;BME280;74703;51.284;22.590;2024-02-26T15:53:33;98878.41;;;11.64;83.69
84483;BME280;74703;51.284;22.590;2024-02-26T15:58:34;98857.00;;;11.44;84.58
84483;BME280;74703;51.284;22.590;2024-02-26T16:03:38;98863.72;;;11.49;84.54
84483;BME280;74703;51.284;22.590;2024-02-26T16:08:39;98856.63;;;11.36;85.36
84483;BME280;74703;51.284;22.590;2024-02-26T16:13:40;98866.78;;;11.27;85.64
84483;BME280;74703;51.284;22.590;2024-02-26T16:18:41;98882.28;;;11.14;85.88
84483;BME280;74703;51.284;22.590;2024-02-26T16:23:42;98876.41;;;11.10;86.39
84483;BME280;74703;51.284;22.590;2024-02-26T16:28:43;98880.50;;;11.00;86.22
84483;BME280;74703;51.284;22.590;2024-02-26T16:33:43;98882.50;;;10.95;86.61
84483;BME280;74703;51.284;22.590;2024-02-26T16:38:44;98899.84;;;10.80;86.69
84483;BME280;74703;51.284;22.590;2024-02-26T16:43:45;98917.06;;;10.83;87.84
84483;BME280;74703;51.284;22.590;2024-02-26T16:48:46;98916.41;;;10.79;88.55
84483;BME280;74703;51.284;22.590;2024-02-26T16:53:51;98909.53;;;10.78;88.44
84483;BME280;74703;51.284;22.590;2024-02-26T16:58:51;98910.19;;;10.82;88.70
84483;BME280;74703;51.284;22.590;2024-02-26T17:03:52;98877.88;;;10.70;90.51
84483;BME280;74703;51.284;22.590;2024-02-26T17:08:52;98884.81;;;10.55;91.38
84483;BME280;74703;51.284;22.590;2024-02-26T17:13:53;98899.94;;;10.48;91.66
84483;BME280;74703;51.284;22.590;2024-02-26T17:18:54;98918.72;;;10.53;91.67
84483;BME280;74703;51.284;22.590;2024-02-26T17:23:55;98914.19;;;10.41;91.63
84483;BME280;74703;51.284;22.590;2024-02-26T17:28:56;98904.63;;;10.26;91.93
84483;BME280;74703;51.284;22.590;2024-02-26T17:33:57;98922.34;;;10.35;92.49
84483;BME280;74703;51.284;22.590;2024-02-26T17:38:58;98915.03;;;10.26;92.59
84483;BME280;74703;51.284;22.590;2024-02-26T17:43:58;98914.75;;;10.15;92.33
84483;BME280;74703;51.284;22.590;2024-02-26T17:48:59;98922.91;;;10.08;92.50
84483;BME280;74703;51.284;22.590;2024-02-26T17:54:00;98926.88;;;9.98;92.78
84483;BME280;74703;51.284;22.590;2024-02-26T17:59:00;98926.63;;;9.87;92.81
84483;BME280;74703;51.284;22.590;2024-02-26T18:04:01;98914.97;;;9.78;92.97
84483;BME280;74703;51.284;22.590;2024-02-26T18:09:01;98929.81;;;9.92;92.51
84483;BME280;74703;51.284;22.590;2024-02-26T18:14:02;98942.00;;;10.07;91.47
84483;BME280;74703;51.284;22.590;2024-02-26T18:19:03;98926.25;;;10.11;90.02
84483;BME280;74703;51.284;22.590;2024-02-26T18:24:06;98931.13;;;10.17;88.70
84483;BME280;74703;51.284;22.590;2024-02-26T18:29:07;98949.25;;;10.34;88.04
84483;BME280;74703;51.284;22.590;2024-02-26T18:34:07;98936.69;;;10.42;87.14
84483;BME280;74703;51.284;22.590;2024-02-26T18:39:09;98952.75;;;10.65;85.89
84483;BME280;74703;51.284;22.590;2024-02-26T18:44:11;98948.81;;;10.58;85.48
84483;BME280;74703;51.284;22.590;2024-02-26T18:49:12;98947.16;;;10.57;85.68
84483;BME280;74703;51.284;22.590;2024-02-26T18:54:13;98951.94;;;10.48;86.06
84483;BME280;74703;51.284;22.590;2024-02-26T18:59:13;98960.16;;;10.57;86.05
84483;BME280;74703;51.284;22.590;2024-02-26T19:04:16;98967.66;;;10.47;86.02
84483;BME280;74703;51.284;22.590;2024-02-26T19:09:16;98960.50;;;10.35;86.06
84483;BME280;74703;51.284;22.590;2024-02-26T19:14:17;98955.28;;;10.35;85.76
84483;BME280;74703;51.284;22.590;2024-02-26T19:19:18;98969.03;;;10.21;86.73
84483;BME280;74703;51.284;22.590;2024-02-26T19:24:19;98966.97;;;10.10;86.37
84483;BME280;74703;51.284;22.590;2024-02-26T19:29:22;98967.97;;;9.92;86.81
84483;BME280;74703;51.284;22.590;2024-02-26T19:34:23;98980.06;;;9.93;86.77
84483;BME280;74703;51.284;22.590;2024-02-26T19:39:25;98970.00;;;9.69;87.29
84483;BME280;74703;51.284;22.590;2024-02-26T19:44:25;98984.53;;;9.56;88.05
84483;BME280;74703;51.284;22.590;2024-02-26T19:49:26;98985.41;;;9.39;88.19
84483;BME280;74703;51.284;22.590;2024-02-26T19:54:27;98984.94;;;9.31;88.23
84483;BME280;74703;51.284;22.590;2024-02-26T19:59:28;98991.66;;;9.17;88.21
84483;BME280;74703;51.284;22.590;2024-02-26T20:04:28;99007.09;;;9.21;88.24
84483;BME280;74703;51.284;22.590;2024-02-26T20:09:31;99029.22;;;9.45;87.48
84483;BME280;74703;51.284;22.590;2024-02-26T20:14:31;99008.75;;;9.22;87.33
84483;BME280;74703;51.284;22.590;2024-02-26T20:19:33;99045.63;;;9.28;87.14
84483;BME280;74703;51.284;22.590;2024-02-26T20:24:33;99029.19;;;9.10;87.97
84483;BME280;74703;51.284;22.590;2024-02-26T20:29:34;99027.75;;;9.05;87.79
84483;BME280;74703;51.284;22.590;2024-02-26T20:34:35;99034.47;;;9.09;87.17
84483;BME280;74703;51.284;22.590;2024-02-26T20:39:35;99036.81;;;8.96;87.32
84483;BME280;74703;51.284;22.590;2024-02-26T20:44:36;99044.47;;;8.80;88.06
84483;BME280;74703;51.284;22.590;2024-02-26T20:49:38;99053.50;;;8.90;87.20
84483;BME280;74703;51.284;22.590;2024-02-26T20:54:38;99063.81;;;8.92;86.61
84483;BME280;74703;51.284;22.590;2024-02-26T20:59:39;99056.00;;;8.75;86.94
84483;BME280;74703;51.284;22.590;2024-02-26T21:04:43;99069.56;;;8.80;86.74
84483;BME280;74703;51.284;22.590;2024-02-26T21:09:43;99055.41;;;8.68;86.52
84483;BME280;74703;51.284;22.590;2024-02-26T21:14:44;99064.53;;;8.58;87.05
84483;BME280;74703;51.284;22.590;2024-02-26T21:19:44;99074.50;;;8.67;86.93
84483;BME280;74703;51.284;22.590;2024-02-26T21:24:45;99065.78;;;8.49;87.88
84483;BME280;74703;51.284;22.590;2024-02-26T21:29:45;99092.22;;;8.38;88.58
84483;BME280;74703;51.284;22.590;2024-02-26T21:34:46;99071.53;;;8.16;89.21
84483;BME280;74703;51.284;22.590;2024-02-26T21:39:46;99089.28;;;8.25;88.95
84483;BME280;74703;51.284;22.590;2024-02-26T21:44:47;99071.44;;;7.99;89.81
84483;BME280;74703;51.284;22.590;2024-02-26T21:49:48;99073.13;;;8.00;89.50
84483;BME280;74703;51.284;22.590;2024-02-26T21:54:49;99085.16;;;8.01;89.53
84483;BME280;74703;51.284;22.590;2024-02-26T21:59:50;99098.81;;;8.04;89.46
84483;BME280;74703;51.284;22.590;2024-02-26T22:04:51;99105.47;;;8.10;89.18
84483;BME280;74703;51.284;22.590;2024-02-26T22:09:53;99117.09;;;8.01;89.57
84483;BME280;74703;51.284;22.590;2024-02-26T22:14:54;99105.31;;;7.94;89.34
84483;BME280;74703;51.284;22.590;2024-02-26T22:19:55;99126.75;;;7.98;89.29
84483;BME280;74703;51.284;22.590;2024-02-26T22:24:55;99104.19;;;7.79;89.96
84483;BME280;74703;51.284;22.590;2024-02-26T22:29:56;99111.06;;;7.80;89.74
84483;BME280;74703;51.284;22.590;2024-02-26T22:34:56;99118.13;;;7.77;89.82
84483;BME280;74703;51.284;22.590;2024-02-26T22:39:57;99132.63;;;7.81;89.90
84483;BME280;74703;51.284;22.590;2024-02-26T22:44:58;99141.25;;;7.82;90.01
84483;BME280;74703;51.284;22.590;2024-02-26T22:49:58;99129.47;;;7.95;88.89
84483;BME280;74703;51.284;22.590;2024-02-26T22:54:59;99147.34;;;8.01;89.03
84483;BME280;74703;51.284;22.590;2024-02-26T23:00:00;99125.72;;;7.82;88.77
84483;BME280;74703;51.284;22.590;2024-02-26T23:05:24;99135.59;;;7.92;88.81
84483;BME280;74703;51.284;22.590;2024-02-26T23:10:25;99123.50;;;7.72;89.30
84483;BME280;74703;51.284;22.590;2024-02-26T23:15:26;99128.97;;;7.65;89.73
84483;BME280;74703;51.284;22.590;2024-02-26T23:20:28;99122.38;;;7.57;89.79
84483;BME280;74703;51.284;22.590;2024-02-26T23:25:29;99139.53;;;7.60;90.03
84483;BME280;74703;51.284;22.590;2024-02-26T23:30:29;99150.47;;;7.67;89.97
84483;BME280;74703;51.284;22.590;2024-02-26T23:35:30;99158.97;;;7.70;89.88
84483;BME280;74703;51.284;22.590;2024-02-26T23:40:31;99140.91;;;7.47;90.36
84483;BME280;74703;51.284;22.590;2024-02-26T23:45:33;99141.72;;;7.49;90.22
84483;BME280;74703;51.284;22.590;2024-02-26T23:50:34;99164.84;;;7.53;90.09
84483;BME280;74703;51.284;22.590;2024-02-26T23:55:35;99147.41;;;7.35;90.51
